sensor_id;sensor_type;location;lat;lon;timestamp;P1;durP1;ratioP1;P2;durP2;ratioP2
64842;SDS011;51310;52.198;5.422;2023-02-28T00:00:32;7.57;;;3.50;;
64842;SDS011;51310;52.198;5.422;2023-02-28T00:02:59;6.90;;;3.28;;
64842;SDS011;51310;52.198;5.422;2023-02-28T00:05:26;8.80;;;3.30;;
64842;SDS011;51310;52.198;5.422;2023-02-28T00:07:53;9.65;;;4.10;;
64842;SDS011;51310;52.198;5.422;2023-02-28T00:10:20;11.07;;;4.00;;
64842;SDS011;51310;52.198;5.422;2023-02-28T00:12:52;14.23;;;3.92;;
64842;SDS011;51310;52.198;5.422;2023-02-28T00:15:22;10.45;;;3.97;;
64842;SDS011;51310;52.198;5.422;2023-02-28T00:17:49;15.15;;;4.15;;
64842;SDS011;51310;52.198;5.422;2023-02-28T00:20:15;10.57;;;4.40;;
64842;SDS011;51310;52.198;5.422;2023-02-28T00:22:43;11.90;;;4.63;;
64842;SDS011;51310;52.198;5.422;2023-02-28T00:25:11;9.93;;;3.97;;
64842;SDS011;51310;52.198;5.422;2023-02-28T00:27:41;7.97;;;3.22;;
64842;SDS011;51310;52.198;5.422;2023-02-28T00:30:09;10.75;;;3.92;;
64842;SDS011;51310;52.198;5.422;2023-02-28T00:32:39;9.20;;;3.80;;
64842;SDS011;51310;52.198;5.422;2023-02-28T00:35:05;11.10;;;3.87;;
64842;SDS011;51310;52.198;5.422;2023-02-28T00:37:32;13.18;;;4.60;;
64842;SDS011;51310;52.198;5.422;2023-02-28T00:39:58;13.03;;;4.27;;
64842;SDS011;51310;52.198;5.422;2023-02-28T00:42:24;14.07;;;4.60;;
64842;SDS011;51310;52.198;5.422;2023-02-28T00:44:50;14.23;;;4.57;;
64842;SDS011;51310;52.198;5.422;2023-02-28T00:47:15;12.27;;;4.13;;
64842;SDS011;51310;52.198;5.422;2023-02-28T00:49:42;11.38;;;3.47;;
64842;SDS011;51310;52.198;5.422;2023-02-28T00:52:08;9.93;;;3.88;;
64842;SDS011;51310;52.198;5.422;2023-02-28T00:54:34;15.70;;;4.85;;
64842;SDS011;51310;52.198;5.422;2023-02-28T00:57:00;11.07;;;4.50;;
64842;SDS011;51310;52.198;5.422;2023-02-28T00:59:29;11.90;;;4.25;;
64842;SDS011;51310;52.198;5.422;2023-02-28T01:01:55;12.82;;;3.78;;
64842;SDS011;51310;52.198;5.422;2023-02-28T01:04:21;11.77;;;3.90;;
64842;SDS011;51310;52.198;5.422;2023-02-28T01:06:47;9.45;;;4.00;;
64842;SDS011;51310;52.198;5.422;2023-02-28T01:09:12;7.97;;;3.60;;
64842;SDS011;51310;52.198;5.422;2023-02-28T01:11:38;10.93;;;4.40;;
64842;SDS011;51310;52.198;5.422;2023-02-28T01:14:06;8.30;;;3.40;;
64842;SDS011;51310;52.198;5.422;2023-02-28T01:16:33;12.17;;;3.93;;
64842;SDS011;51310;52.198;5.422;2023-02-28T01:18:58;8.10;;;3.60;;
64842;SDS011;51310;52.198;5.422;2023-02-28T01:21:24;8.03;;;3.43;;
64842;SDS011;51310;52.198;5.422;2023-02-28T01:23:50;10.10;;;4.15;;
64842;SDS011;51310;52.198;5.422;2023-02-28T01:26:17;12.15;;;3.70;;
64842;SDS011;51310;52.198;5.422;2023-02-28T01:28:48;8.63;;;3.47;;
64842;SDS011;51310;52.198;5.422;2023-02-28T01:31:15;8.37;;;3.43;;
64842;SDS011;51310;52.198;5.422;2023-02-28T01:33:41;7.72;;;3.13;;
64842;SDS011;51310;52.198;5.422;2023-02-28T01:36:09;6.82;;;2.92;;
64842;SDS011;51310;52.198;5.422;2023-02-28T01:38:37;6.87;;;3.90;;
64842;SDS011;51310;52.198;5.422;2023-02-28T01:41:03;9.18;;;3.85;;
64842;SDS011;51310;52.198;5.422;2023-02-28T01:46:08;7.47;;;3.90;;
64842;SDS011;51310;52.198;5.422;2023-02-28T01:48:36;14.03;;;3.90;;
64842;SDS011;51310;52.198;5.422;2023-02-28T01:51:22;8.57;;;3.57;;
64842;SDS011;51310;52.198;5.422;2023-02-28T01:54:12;6.72;;;3.25;;
64842;SDS011;51310;52.198;5.422;2023-02-28T01:56:53;6.55;;;3.45;;
64842;SDS011;51310;52.198;5.422;2023-02-28T02:02:05;13.70;;;4.28;;
64842;SDS011;51310;52.198;5.422;2023-02-28T02:04:32;8.80;;;3.78;;
64842;SDS011;51310;52.198;5.422;2023-02-28T02:07:11;9.48;;;3.35;;
64842;SDS011;51310;52.198;5.422;2023-02-28T02:09:38;13.07;;;4.05;;
64842;SDS011;51310;52.198;5.422;2023-02-28T02:12:10;8.20;;;3.75;;
64842;SDS011;51310;52.198;5.422;2023-02-28T02:15:11;9.60;;;3.92;;
64842;SDS011;51310;52.198;5.422;2023-02-28T02:17:52;9.70;;;3.67;;
64842;SDS011;51310;52.198;5.422;2023-02-28T02:26:18;9.60;;;3.80;;
64842;SDS011;51310;52.198;5.422;2023-02-28T02:35:47;7.53;;;2.97;;
64842;SDS011;51310;52.198;5.422;2023-02-28T02:46:48;5.50;;;2.60;;
64842;SDS011;51310;52.198;5.422;2023-02-28T02:49:28;7.53;;;2.88;;
64842;SDS011;51310;52.198;5.422;2023-02-28T02:52:02;5.03;;;2.28;;
64842;SDS011;51310;52.198;5.422;2023-02-28T02:54:37;6.38;;;2.58;;
64842;SDS011;51310;52.198;5.422;2023-02-28T02:57:13;8.27;;;3.65;;
64842;SDS011;51310;52.198;5.422;2023-02-28T02:59:49;7.20;;;2.70;;
64842;SDS011;51310;52.198;5.422;2023-02-28T03:02:20;9.20;;;3.35;;
64842;SDS011;51310;52.198;5.422;2023-02-28T03:04:52;6.25;;;3.35;;
64842;SDS011;51310;52.198;5.422;2023-02-28T03:07:26;15.77;;;3.90;;
64842;SDS011;51310;52.198;5.422;2023-02-28T03:09:52;8.77;;;4.13;;
64842;SDS011;51310;52.198;5.422;2023-02-28T03:12:20;10.33;;;4.40;;
64842;SDS011;51310;52.198;5.422;2023-02-28T03:17:55;13.90;;;5.57;;
64842;SDS011;51310;52.198;5.422;2023-02-28T03:20:49;9.90;;;4.90;;
64842;SDS011;51310;52.198;5.422;2023-02-28T03:26:25;12.27;;;4.00;;
64842;SDS011;51310;52.198;5.422;2023-02-28T03:28:55;9.55;;;4.80;;
64842;SDS011;51310;52.198;5.422;2023-02-28T03:31:41;12.40;;;4.85;;
64842;SDS011;51310;52.198;5.422;2023-02-28T03:34:36;12.02;;;4.85;;
64842;SDS011;51310;52.198;5.422;2023-02-28T03:37:12;9.15;;;4.20;;
64842;SDS011;51310;52.198;5.422;2023-02-28T03:39:49;12.27;;;4.67;;
64842;SDS011;51310;52.198;5.422;2023-02-28T03:42:33;12.18;;;4.88;;
64842;SDS011;51310;52.198;5.422;2023-02-28T03:45:04;15.68;;;5.03;;
64842;SDS011;51310;52.198;5.422;2023-02-28T03:47:39;10.38;;;4.95;;
64842;SDS011;51310;52.198;5.422;2023-02-28T03:55:30;10.27;;;3.97;;
64842;SDS011;51310;52.198;5.422;2023-02-28T04:00:59;9.73;;;3.97;;
64842;SDS011;51310;52.198;5.422;2023-02-28T04:03:34;8.70;;;3.65;;
64842;SDS011;51310;52.198;5.422;2023-02-28T04:06:03;9.73;;;3.95;;
64842;SDS011;51310;52.198;5.422;2023-02-28T04:08:32;9.65;;;3.72;;
64842;SDS011;51310;52.198;5.422;2023-02-28T04:11:42;7.32;;;3.42;;
64842;SDS011;51310;52.198;5.422;2023-02-28T04:13:57;11.38;;;5.05;;
64842;SDS011;51310;52.198;5.422;2023-02-28T04:16:22;8.32;;;3.55;;
64842;SDS011;51310;52.198;5.422;2023-02-28T04:18:48;7.87;;;4.27;;
64842;SDS011;51310;52.198;5.422;2023-02-28T04:21:14;9.70;;;3.97;;
64842;SDS011;51310;52.198;5.422;2023-02-28T04:23:40;7.35;;;3.85;;
64842;SDS011;51310;52.198;5.422;2023-02-28T04:26:06;7.25;;;3.70;;
64842;SDS011;51310;52.198;5.422;2023-02-28T04:28:32;7.35;;;3.92;;
64842;SDS011;51310;52.198;5.422;2023-02-28T04:31:00;9.55;;;4.68;;
64842;SDS011;51310;52.198;5.422;2023-02-28T04:33:29;7.90;;;4.07;;
64842;SDS011;51310;52.198;5.422;2023-02-28T04:36:03;9.85;;;3.20;;
64842;SDS011;51310;52.198;5.422;2023-02-28T04:38:34;5.40;;;2.80;;
64842;SDS011;51310;52.198;5.422;2023-02-28T04:41:02;5.60;;;2.67;;
64842;SDS011;51310;52.198;5.422;2023-02-28T04:43:29;4.45;;;2.88;;
64842;SDS011;51310;52.198;5.422;2023-02-28T04:45:57;3.77;;;2.30;;
64842;SDS011;51310;52.198;5.422;2023-02-28T04:48:27;4.32;;;2.30;;
64842;SDS011;51310;52.198;5.422;2023-02-28T04:50:55;5.13;;;1.90;;
64842;SDS011;51310;52.198;5.422;2023-02-28T04:53:25;3.55;;;2.00;;
64842;SDS011;51310;52.198;5.422;2023-02-28T04:55:53;6.40;;;2.20;;
64842;SDS011;51310;52.198;5.422;2023-02-28T04:58:20;4.63;;;2.03;;
64842;SDS011;51310;52.198;5.422;2023-02-28T05:00:48;6.22;;;2.40;;
64842;SDS011;51310;52.198;5.422;2023-02-28T05:03:15;5.15;;;1.90;;
64842;SDS011;51310;52.198;5.422;2023-02-28T05:05:41;3.63;;;1.93;;
64842;SDS011;51310;52.198;5.422;2023-02-28T05:08:06;5.30;;;2.17;;
64842;SDS011;51310;52.198;5.422;2023-02-28T05:10:32;5.90;;;2.60;;
64842;SDS011;51310;52.198;5.422;2023-02-28T05:12:58;4.50;;;1.95;;
64842;SDS011;51310;52.198;5.422;2023-02-28T05:15:24;5.25;;;2.03;;
64842;SDS011;51310;52.198;5.422;2023-02-28T05:17:50;5.90;;;2.70;;
64842;SDS011;51310;52.198;5.422;2023-02-28T05:20:15;3.95;;;2.22;;
64842;SDS011;51310;52.198;5.422;2023-02-28T05:22:42;5.22;;;2.10;;
64842;SDS011;51310;52.198;5.422;2023-02-28T05:25:18;4.27;;;1.90;;
64842;SDS011;51310;52.198;5.422;2023-02-28T05:27:49;4.83;;;2.07;;
64842;SDS011;51310;52.198;5.422;2023-02-28T05:30:15;6.00;;;2.28;;
64842;SDS011;51310;52.198;5.422;2023-02-28T05:32:41;6.72;;;2.75;;
64842;SDS011;51310;52.198;5.422;2023-02-28T05:35:08;8.90;;;4.63;;
64842;SDS011;51310;52.198;5.422;2023-02-28T05:37:36;6.07;;;2.88;;
64842;SDS011;51310;52.198;5.422;2023-02-28T05:40:04;4.20;;;2.50;;
64842;SDS011;51310;52.198;5.422;2023-02-28T05:42:32;3.65;;;2.58;;
64842;SDS011;51310;52.198;5.422;2023-02-28T05:44:58;4.43;;;2.97;;
64842;SDS011;51310;52.198;5.422;2023-02-28T05:47:24;5.80;;;3.17;;
64842;SDS011;51310;52.198;5.422;2023-02-28T05:49:50;5.90;;;3.13;;
64842;SDS011;51310;52.198;5.422;2023-02-28T05:52:15;6.15;;;3.15;;
64842;SDS011;51310;52.198;5.422;2023-02-28T05:54:41;5.93;;;2.60;;
64842;SDS011;51310;52.198;5.422;2023-02-28T05:57:07;6.87;;;3.50;;
64842;SDS011;51310;52.198;5.422;2023-02-28T05:59:33;5.33;;;2.77;;
64842;SDS011;51310;52.198;5.422;2023-02-28T06:01:59;5.97;;;3.00;;
64842;SDS011;51310;52.198;5.422;2023-02-28T06:04:24;5.90;;;2.80;;
64842;SDS011;51310;52.198;5.422;2023-02-28T06:06:50;8.80;;;3.40;;
64842;SDS011;51310;52.198;5.422;2023-02-28T06:09:16;6.60;;;3.33;;
64842;SDS011;51310;52.198;5.422;2023-02-28T06:11:44;8.05;;;3.20;;
64842;SDS011;51310;52.198;5.422;2023-02-28T06:14:14;6.22;;;3.40;;
64842;SDS011;51310;52.198;5.422;2023-02-28T06:16:43;7.17;;;3.07;;
64842;SDS011;51310;52.198;5.422;2023-02-28T06:19:10;6.38;;;2.78;;
64842;SDS011;51310;52.198;5.422;2023-02-28T06:21:36;4.70;;;3.00;;
64842;SDS011;51310;52.198;5.422;2023-02-28T06:24:02;7.28;;;3.40;;
64842;SDS011;51310;52.198;5.422;2023-02-28T06:26:28;4.55;;;2.88;;
64842;SDS011;51310;52.198;5.422;2023-02-28T06:28:54;6.68;;;3.00;;
64842;SDS011;51310;52.198;5.422;2023-02-28T06:31:21;6.68;;;3.42;;
64842;SDS011;51310;52.198;5.422;2023-02-28T06:33:47;5.28;;;3.00;;
64842;SDS011;51310;52.198;5.422;2023-02-28T06:36:14;4.95;;;3.40;;
64842;SDS011;51310;52.198;5.422;2023-02-28T06:38:42;4.60;;;3.45;;
64842;SDS011;51310;52.198;5.422;2023-02-28T06:41:09;5.23;;;3.53;;
64842;SDS011;51310;52.198;5.422;2023-02-28T06:43:39;5.65;;;3.63;;
64842;SDS011;51310;52.198;5.422;2023-02-28T06:46:08;6.65;;;3.47;;
64842;SDS011;51310;52.198;5.422;2023-02-28T06:48:38;5.15;;;3.38;;
64842;SDS011;51310;52.198;5.422;2023-02-28T06:51:05;8.43;;;3.75;;
64842;SDS011;51310;52.198;5.422;2023-02-28T06:53:39;8.70;;;3.40;;
64842;SDS011;51310;52.198;5.422;2023-02-28T06:56:07;7.85;;;4.25;;
64842;SDS011;51310;52.198;5.422;2023-02-28T06:58:37;7.23;;;3.87;;
64842;SDS011;51310;52.198;5.422;2023-02-28T07:01:04;7.50;;;4.07;;
64842;SDS011;51310;52.198;5.422;2023-02-28T07:03:31;7.85;;;3.50;;
64842;SDS011;51310;52.198;5.422;2023-02-28T07:05:57;7.75;;;4.05;;
64842;SDS011;51310;52.198;5.422;2023-02-28T07:08:24;8.60;;;4.00;;
64842;SDS011;51310;52.198;5.422;2023-02-28T07:10:52;6.35;;;4.20;;
64842;SDS011;51310;52.198;5.422;2023-02-28T07:13:19;8.90;;;3.95;;
64842;SDS011;51310;52.198;5.422;2023-02-28T07:15:52;7.75;;;4.00;;
64842;SDS011;51310;52.198;5.422;2023-02-28T07:18:23;7.43;;;4.57;;
64842;SDS011;51310;52.198;5.422;2023-02-28T07:20:49;8.07;;;3.88;;
64842;SDS011;51310;52.198;5.422;2023-02-28T07:23:15;8.18;;;4.22;;
64842;SDS011;51310;52.198;5.422;2023-02-28T07:25:41;5.93;;;3.78;;
64842;SDS011;51310;52.198;5.422;2023-02-28T07:28:06;9.68;;;4.43;;
64842;SDS011;51310;52.198;5.422;2023-02-28T07:30:32;6.55;;;4.30;;
64842;SDS011;51310;52.198;5.422;2023-02-28T07:32:58;5.87;;;4.00;;
64842;SDS011;51310;52.198;5.422;2023-02-28T07:35:23;9.63;;;4.80;;
64842;SDS011;51310;52.198;5.422;2023-02-28T07:37:49;9.52;;;4.85;;
64842;SDS011;51310;52.198;5.422;2023-02-28T07:40:15;7.28;;;4.00;;
64842;SDS011;51310;52.198;5.422;2023-02-28T07:42:42;6.47;;;4.40;;
64842;SDS011;51310;52.198;5.422;2023-02-28T07:45:09;6.65;;;4.22;;
64842;SDS011;51310;52.198;5.422;2023-02-28T07:47:39;8.95;;;4.53;;
64842;SDS011;51310;52.198;5.422;2023-02-28T07:50:07;8.75;;;4.90;;
64842;SDS011;51310;52.198;5.422;2023-02-28T07:52:36;9.27;;;5.20;;
64842;SDS011;51310;52.198;5.422;2023-02-28T07:55:04;8.37;;;4.97;;
64842;SDS011;51310;52.198;5.422;2023-02-28T07:57:32;12.38;;;5.45;;
64842;SDS011;51310;52.198;5.422;2023-02-28T07:59:57;8.87;;;5.00;;
64842;SDS011;51310;52.198;5.422;2023-02-28T08:02:23;7.00;;;4.63;;
64842;SDS011;51310;52.198;5.422;2023-02-28T08:04:49;8.15;;;5.32;;
64842;SDS011;51310;52.198;5.422;2023-02-28T08:07:16;11.13;;;6.05;;
64842;SDS011;51310;52.198;5.422;2023-02-28T08:09:44;16.50;;;6.60;;
64842;SDS011;51310;52.198;5.422;2023-02-28T08:12:10;10.60;;;5.93;;
64842;SDS011;51310;52.198;5.422;2023-02-28T08:14:36;9.00;;;5.88;;
64842;SDS011;51310;52.198;5.422;2023-02-28T08:17:03;11.52;;;6.75;;
64842;SDS011;51310;52.198;5.422;2023-02-28T08:19:29;10.00;;;6.17;;
64842;SDS011;51310;52.198;5.422;2023-02-28T08:21:55;13.27;;;7.18;;
64842;SDS011;51310;52.198;5.422;2023-02-28T08:24:21;10.27;;;6.47;;
64842;SDS011;51310;52.198;5.422;2023-02-28T08:26:47;10.73;;;6.40;;
64842;SDS011;51310;52.198;5.422;2023-02-28T08:29:13;9.40;;;6.05;;
64842;SDS011;51310;52.198;5.422;2023-02-28T08:31:39;10.05;;;6.13;;
64842;SDS011;51310;52.198;5.422;2023-02-28T08:34:07;10.15;;;5.35;;
64842;SDS011;51310;52.198;5.422;2023-02-28T08:36:39;10.15;;;4.93;;
64842;SDS011;51310;52.198;5.422;2023-02-28T08:39:06;8.25;;;4.95;;
64842;SDS011;51310;52.198;5.422;2023-02-28T08:41:32;8.98;;;4.55;;
64842;SDS011;51310;52.198;5.422;2023-02-28T08:43:58;5.32;;;3.88;;
64842;SDS011;51310;52.198;5.422;2023-02-28T08:46:25;7.72;;;4.30;;
64842;SDS011;51310;52.198;5.422;2023-02-28T08:48:55;6.15;;;3.90;;
64842;SDS011;51310;52.198;5.422;2023-02-28T08:51:25;6.30;;;4.07;;
64842;SDS011;51310;52.198;5.422;2023-02-28T08:53:55;6.57;;;3.80;;
64842;SDS011;51310;52.198;5.422;2023-02-28T08:56:24;9.45;;;4.00;;
64842;SDS011;51310;52.198;5.422;2023-02-28T08:58:53;5.35;;;3.55;;
64842;SDS011;51310;52.198;5.422;2023-02-28T09:01:22;6.15;;;3.63;;
64842;SDS011;51310;52.198;5.422;2023-02-28T09:03:53;5.85;;;3.58;;
64842;SDS011;51310;52.198;5.422;2023-02-28T09:06:21;7.25;;;3.75;;
64842;SDS011;51310;52.198;5.422;2023-02-28T09:08:50;6.47;;;4.00;;
64842;SDS011;51310;52.198;5.422;2023-02-28T09:11:16;6.30;;;3.70;;
64842;SDS011;51310;52.198;5.422;2023-02-28T09:13:44;8.93;;;4.25;;
64842;SDS011;51310;52.198;5.422;2023-02-28T09:16:11;6.50;;;3.47;;
64842;SDS011;51310;52.198;5.422;2023-02-28T09:18:41;7.43;;;3.43;;
64842;SDS011;51310;52.198;5.422;2023-02-28T09:21:10;6.85;;;3.13;;
64842;SDS011;51310;52.198;5.422;2023-02-28T09:23:43;7.57;;;2.60;;
64842;SDS011;51310;52.198;5.422;2023-02-28T09:26:15;5.50;;;2.72;;
64842;SDS011;51310;52.198;5.422;2023-02-28T09:28:50;6.90;;;2.43;;
64842;SDS011;51310;52.198;5.422;2023-02-28T09:31:21;4.47;;;2.45;;
64842;SDS011;51310;52.198;5.422;2023-02-28T09:33:54;4.72;;;2.22;;
64842;SDS011;51310;52.198;5.422;2023-02-28T09:36:22;3.40;;;2.05;;
64842;SDS011;51310;52.198;5.422;2023-02-28T09:38:50;4.75;;;2.17;;
64842;SDS011;51310;52.198;5.422;2023-02-28T09:44:17;2.40;;;1.50;;
64842;SDS011;51310;52.198;5.422;2023-02-28T09:47:11;2.53;;;1.40;;
64842;SDS011;51310;52.198;5.422;2023-02-28T09:49:54;5.63;;;1.50;;
64842;SDS011;51310;52.198;5.422;2023-02-28T09:52:41;3.50;;;1.40;;
64842;SDS011;51310;52.198;5.422;2023-02-28T09:55:33;3.63;;;1.48;;
64842;SDS011;51310;52.198;5.422;2023-02-28T09:58:20;2.05;;;1.40;;
64842;SDS011;51310;52.198;5.422;2023-02-28T10:01:24;2.65;;;1.10;;
64842;SDS011;51310;52.198;5.422;2023-02-28T10:04:00;2.20;;;1.30;;
64842;SDS011;51310;52.198;5.422;2023-02-28T10:06:44;4.13;;;1.30;;
64842;SDS011;51310;52.198;5.422;2023-02-28T10:09:18;1.98;;;1.30;;
64842;SDS011;51310;52.198;5.422;2023-02-28T10:11:56;2.78;;;1.38;;
64842;SDS011;51310;52.198;5.422;2023-02-28T10:14:30;3.17;;;1.45;;
64842;SDS011;51310;52.198;5.422;2023-02-28T10:25:32;2.58;;;2.00;;
64842;SDS011;51310;52.198;5.422;2023-02-28T10:28:19;3.25;;;1.45;;
64842;SDS011;51310;52.198;5.422;2023-02-28T10:30:49;3.88;;;1.67;;
64842;SDS011;51310;52.198;5.422;2023-02-28T10:33:19;2.80;;;1.60;;
64842;SDS011;51310;52.198;5.422;2023-02-28T10:35:52;3.55;;;1.48;;
64842;SDS011;51310;52.198;5.422;2023-02-28T10:38:21;2.77;;;1.30;;
64842;SDS011;51310;52.198;5.422;2023-02-28T10:40:51;3.83;;;1.83;;
64842;SDS011;51310;52.198;5.422;2023-02-28T10:43:27;4.47;;;2.10;;
64842;SDS011;51310;52.198;5.422;2023-02-28T10:45:55;3.65;;;1.50;;
64842;SDS011;51310;52.198;5.422;2023-02-28T10:48:37;2.13;;;1.23;;
64842;SDS011;51310;52.198;5.422;2023-02-28T10:51:11;2.65;;;1.38;;
64842;SDS011;51310;52.198;5.422;2023-02-28T10:53:47;4.18;;;1.60;;
64842;SDS011;51310;52.198;5.422;2023-02-28T10:56:20;4.65;;;1.95;;
64842;SDS011;51310;52.198;5.422;2023-02-28T11:01:52;2.80;;;1.48;;
64842;SDS011;51310;52.198;5.422;2023-02-28T11:06:48;3.67;;;1.50;;
64842;SDS011;51310;52.198;5.422;2023-02-28T11:09:31;2.63;;;1.40;;
64842;SDS011;51310;52.198;5.422;2023-02-28T11:12:06;3.50;;;1.40;;
64842;SDS011;51310;52.198;5.422;2023-02-28T11:15:02;2.55;;;1.70;;
64842;SDS011;51310;52.198;5.422;2023-02-28T11:17:55;3.10;;;1.70;;
64842;SDS011;51310;52.198;5.422;2023-02-28T11:20:31;1.92;;;1.17;;
64842;SDS011;51310;52.198;5.422;2023-02-28T11:23:00;3.13;;;1.38;;
64842;SDS011;51310;52.198;5.422;2023-02-28T11:25:29;2.45;;;1.25;;
64842;SDS011;51310;52.198;5.422;2023-02-28T11:28:00;3.10;;;1.20;;
64842;SDS011;51310;52.198;5.422;2023-02-28T11:30:49;2.17;;;1.30;;
64842;SDS011;51310;52.198;5.422;2023-02-28T11:38:46;2.20;;;1.33;;
64842;SDS011;51310;52.198;5.422;2023-02-28T11:44:04;1.80;;;1.20;;
64842;SDS011;51310;52.198;5.422;2023-02-28T11:46:52;2.35;;;1.63;;
64842;SDS011;51310;52.198;5.422;2023-02-28T11:49:37;2.15;;;1.52;;
64842;SDS011;51310;52.198;5.422;2023-02-28T11:55:37;2.90;;;1.60;;
64842;SDS011;51310;52.198;5.422;2023-02-28T11:58:17;3.22;;;1.30;;
64842;SDS011;51310;52.198;5.422;2023-02-28T12:12:50;2.63;;;1.45;;
64842;SDS011;51310;52.198;5.422;2023-02-28T12:18:42;4.63;;;1.35;;
64842;SDS011;51310;52.198;5.422;2023-02-28T12:28:26;4.43;;;1.75;;
64842;SDS011;51310;52.198;5.422;2023-02-28T12:33:52;3.30;;;1.65;;
64842;SDS011;51310;52.198;5.422;2023-02-28T12:36:26;8.27;;;1.55;;
64842;SDS011;51310;52.198;5.422;2023-02-28T12:38:58;2.58;;;1.55;;
64842;SDS011;51310;52.198;5.422;2023-02-28T12:41:56;3.45;;;1.85;;
64842;SDS011;51310;52.198;5.422;2023-02-28T12:44:33;3.80;;;1.63;;
64842;SDS011;51310;52.198;5.422;2023-02-28T12:47:08;2.58;;;1.13;;
64842;SDS011;51310;52.198;5.422;2023-02-28T12:49:47;2.85;;;1.73;;
64842;SDS011;51310;52.198;5.422;2023-02-28T12:52:29;1.88;;;1.27;;
64842;SDS011;51310;52.198;5.422;2023-02-28T12:55:08;2.40;;;1.40;;
64842;SDS011;51310;52.198;5.422;2023-02-28T12:58:07;2.78;;;1.52;;
64842;SDS011;51310;52.198;5.422;2023-02-28T13:07:24;4.28;;;1.50;;
64842;SDS011;51310;52.198;5.422;2023-02-28T13:09:57;3.83;;;1.65;;
64842;SDS011;51310;52.198;5.422;2023-02-28T13:12:27;3.30;;;1.50;;
64842;SDS011;51310;52.198;5.422;2023-02-28T13:15:05;2.60;;;1.70;;
64842;SDS011;51310;52.198;5.422;2023-02-28T13:17:54;3.72;;;1.77;;
64842;SDS011;51310;52.198;5.422;2023-02-28T13:20:24;2.63;;;1.48;;
64842;SDS011;51310;52.198;5.422;2023-02-28T13:23:01;4.22;;;1.67;;
64842;SDS011;51310;52.198;5.422;2023-02-28T13:27:59;2.80;;;1.60;;
64842;SDS011;51310;52.198;5.422;2023-02-28T13:33:34;3.28;;;1.30;;
64842;SDS011;51310;52.198;5.422;2023-02-28T13:38:49;3.15;;;1.42;;
64842;SDS011;51310;52.198;5.422;2023-02-28T14:00:18;3.50;;;1.60;;
64842;SDS011;51310;52.198;5.422;2023-02-28T14:05:42;4.10;;;1.50;;
64842;SDS011;51310;52.198;5.422;2023-02-28T14:08:13;2.45;;;1.55;;
64842;SDS011;51310;52.198;5.422;2023-02-28T14:10:46;2.85;;;1.58;;
64842;SDS011;51310;52.198;5.422;2023-02-28T14:16:13;3.27;;;1.50;;
64842;SDS011;51310;52.198;5.422;2023-02-28T14:18:47;2.83;;;1.67;;
64842;SDS011;51310;52.198;5.422;2023-02-28T14:21:26;3.03;;;1.60;;
64842;SDS011;51310;52.198;5.422;2023-02-28T14:24:16;4.20;;;1.90;;
64842;SDS011;51310;52.198;5.422;2023-02-28T14:27:21;2.10;;;1.40;;
64842;SDS011;51310;52.198;5.422;2023-02-28T14:33:23;3.08;;;1.70;;
64842;SDS011;51310;52.198;5.422;2023-02-28T14:38:53;2.40;;;1.52;;
64842;SDS011;51310;52.198;5.422;2023-02-28T14:41:30;2.63;;;1.50;;
64842;SDS011;51310;52.198;5.422;2023-02-28T14:44:12;2.50;;;1.52;;
64842;SDS011;51310;52.198;5.422;2023-02-28T14:46:45;2.50;;;1.70;;
64842;SDS011;51310;52.198;5.422;2023-02-28T14:49:19;4.00;;;1.77;;
64842;SDS011;51310;52.198;5.422;2023-02-28T14:54:44;2.97;;;1.80;;
64842;SDS011;51310;52.198;5.422;2023-02-28T14:57:30;3.20;;;1.50;;
64842;SDS011;51310;52.198;5.422;2023-02-28T15:00:10;4.00;;;2.10;;
64842;SDS011;51310;52.198;5.422;2023-02-28T15:02:40;2.70;;;1.40;;
64842;SDS011;51310;52.198;5.422;2023-02-28T15:07:38;3.03;;;1.50;;
64842;SDS011;51310;52.198;5.422;2023-02-28T15:10:13;3.90;;;1.60;;
64842;SDS011;51310;52.198;5.422;2023-02-28T15:16:10;2.70;;;1.53;;
64842;SDS011;51310;52.198;5.422;2023-02-28T15:21:23;3.10;;;1.80;;
64842;SDS011;51310;52.198;5.422;2023-02-28T15:26:56;2.20;;;1.50;;
64842;SDS011;51310;52.198;5.422;2023-02-28T15:29:26;2.53;;;1.50;;
64842;SDS011;51310;52.198;5.422;2023-02-28T15:31:56;3.65;;;1.60;;
64842;SDS011;51310;52.198;5.422;2023-02-28T15:40:03;7.60;;;3.75;;
64842;SDS011;51310;52.198;5.422;2023-02-28T15:43:13;7.88;;;2.83;;
64842;SDS011;51310;52.198;5.422;2023-02-28T15:45:48;3.13;;;1.48;;
64842;SDS011;51310;52.198;5.422;2023-02-28T15:48:24;3.13;;;1.67;;
64842;SDS011;51310;52.198;5.422;2023-02-28T15:56:46;5.65;;;2.25;;
64842;SDS011;51310;52.198;5.422;2023-02-28T15:59:20;3.35;;;1.70;;
64842;SDS011;51310;52.198;5.422;2023-02-28T16:04:35;8.15;;;3.53;;
64842;SDS011;51310;52.198;5.422;2023-02-28T16:07:05;8.52;;;4.13;;
64842;SDS011;51310;52.198;5.422;2023-02-28T16:09:37;3.10;;;2.10;;
64842;SDS011;51310;52.198;5.422;2023-02-28T16:12:03;4.10;;;2.10;;
64842;SDS011;51310;52.198;5.422;2023-02-28T16:14:30;2.97;;;1.95;;
64842;SDS011;51310;52.198;5.422;2023-02-28T16:16:57;4.40;;;2.10;;
64842;SDS011;51310;52.198;5.422;2023-02-28T16:19:30;7.15;;;4.25;;
64842;SDS011;51310;52.198;5.422;2023-02-28T16:21:57;7.18;;;4.07;;
64842;SDS011;51310;52.198;5.422;2023-02-28T16:24:23;3.67;;;2.40;;
64842;SDS011;51310;52.198;5.422;2023-02-28T16:26:50;3.13;;;2.00;;
64842;SDS011;51310;52.198;5.422;2023-02-28T16:29:21;3.60;;;2.40;;
64842;SDS011;51310;52.198;5.422;2023-02-28T16:32:01;4.20;;;2.88;;
64842;SDS011;51310;52.198;5.422;2023-02-28T16:34:30;6.27;;;2.87;;
64842;SDS011;51310;52.198;5.422;2023-02-28T16:36:56;4.70;;;3.43;;
64842;SDS011;51310;52.198;5.422;2023-02-28T16:39:23;9.70;;;5.10;;
64842;SDS011;51310;52.198;5.422;2023-02-28T16:41:49;4.53;;;2.58;;
64842;SDS011;51310;52.198;5.422;2023-02-28T16:44:32;3.67;;;2.40;;
64842;SDS011;51310;52.198;5.422;2023-02-28T16:47:00;3.20;;;1.85;;
64842;SDS011;51310;52.198;5.422;2023-02-28T16:49:28;4.85;;;3.05;;
64842;SDS011;51310;52.198;5.422;2023-02-28T16:51:54;3.22;;;2.22;;
64842;SDS011;51310;52.198;5.422;2023-02-28T16:54:19;3.42;;;2.08;;
64842;SDS011;51310;52.198;5.422;2023-02-28T16:56:46;5.07;;;1.75;;
64842;SDS011;51310;52.198;5.422;2023-02-28T16:59:13;3.20;;;2.30;;
64842;SDS011;51310;52.198;5.422;2023-02-28T17:01:46;4.00;;;1.80;;
64842;SDS011;51310;52.198;5.422;2023-02-28T17:04:11;4.22;;;2.05;;
64842;SDS011;51310;52.198;5.422;2023-02-28T17:06:39;3.97;;;2.20;;
64842;SDS011;51310;52.198;5.422;2023-02-28T17:09:04;5.30;;;2.40;;
64842;SDS011;51310;52.198;5.422;2023-02-28T17:11:33;4.20;;;2.40;;
64842;SDS011;51310;52.198;5.422;2023-02-28T17:13:59;4.70;;;1.97;;
64842;SDS011;51310;52.198;5.422;2023-02-28T17:16:28;6.03;;;2.30;;
64842;SDS011;51310;52.198;5.422;2023-02-28T17:19:00;6.05;;;2.67;;
64842;SDS011;51310;52.198;5.422;2023-02-28T17:21:29;8.20;;;3.13;;
64842;SDS011;51310;52.198;5.422;2023-02-28T17:23:56;5.70;;;2.70;;
64842;SDS011;51310;52.198;5.422;2023-02-28T17:26:22;6.97;;;2.80;;
64842;SDS011;51310;52.198;5.422;2023-02-28T17:28:52;3.70;;;2.53;;
64842;SDS011;51310;52.198;5.422;2023-02-28T17:31:23;6.18;;;3.05;;
64842;SDS011;51310;52.198;5.422;2023-02-28T17:33:51;5.40;;;2.72;;
64842;SDS011;51310;52.198;5.422;2023-02-28T17:36:21;4.55;;;2.45;;
64842;SDS011;51310;52.198;5.422;2023-02-28T17:38:51;10.32;;;3.25;;
64842;SDS011;51310;52.198;5.422;2023-02-28T17:41:20;7.18;;;2.95;;
64842;SDS011;51310;52.198;5.422;2023-02-28T17:43:46;5.17;;;3.20;;
64842;SDS011;51310;52.198;5.422;2023-02-28T17:46:19;6.35;;;3.83;;
64842;SDS011;51310;52.198;5.422;2023-02-28T17:48:48;5.05;;;3.35;;
64842;SDS011;51310;52.198;5.422;2023-02-28T17:51:16;4.57;;;2.97;;
64842;SDS011;51310;52.198;5.422;2023-02-28T17:53:44;5.32;;;3.03;;
64842;SDS011;51310;52.198;5.422;2023-02-28T17:56:20;5.33;;;3.00;;
64842;SDS011;51310;52.198;5.422;2023-02-28T17:58:50;7.13;;;3.55;;